sensor_id;sensor_type;location;lat;lon;timestamp;temperature;humidity
22081;DHT22;11207;59.512;18.050;2023-03-16T00:01:11;-2.40;99.90
22081;DHT22;11207;59.512;18.050;2023-03-16T00:03:36;-2.40;99.90
22081;DHT22;11207;59.512;18.050;2023-03-16T00:06:02;-2.40;99.90
22081;DHT22;11207;59.512;18.050;2023-03-16T00:08:28;-2.50;99.90
22081;DHT22;11207;59.512;18.050;2023-03-16T00:10:53;-2.50;99.90
22081;DHT22;11207;59.512;18.050;2023-03-16T00:13:21;-2.50;99.90
22081;DHT22;11207;59.512;18.050;2023-03-16T00:15:55;-2.60;99.90
22081;DHT22;11207;59.512;18.050;2023-03-16T00:18:23;-2.60;99.90
22081;DHT22;11207;59.512;18.050;2023-03-16T00:20:59;-2.60;99.90
22081;DHT22;11207;59.512;18.050;2023-03-16T00:23:29;-2.60;99.90
22081;DHT22;11207;59.512;18.050;2023-03-16T00:26:01;-2.70;99.90
22081;DHT22;11207;59.512;18.050;2023-03-16T00:28:28;-2.80;99.90
22081;DHT22;11207;59.512;18.050;2023-03-16T00:31:02;-2.80;99.90
22081;DHT22;11207;59.512;18.050;2023-03-16T00:33:28;-2.80;99.90
22081;DHT22;11207;59.512;18.050;2023-03-16T00:35:54;-2.80;99.90
22081;DHT22;11207;59.512;18.050;2023-03-16T00:38:27;-2.80;99.90
22081;DHT22;11207;59.512;18.050;2023-03-16T00:40:53;-2.80;99.90
22081;DHT22;11207;59.512;18.050;2023-03-16T00:43:19;-2.80;99.90
22081;DHT22;11207;59.512;18.050;2023-03-16T00:45:45;-2.80;99.90
22081;DHT22;11207;59.512;18.050;2023-03-16T00:48:10;-2.80;99.90
22081;DHT22;11207;59.512;18.050;2023-03-16T00:50:39;-2.90;99.90
22081;DHT22;11207;59.512;18.050;2023-03-16T00:53:06;-2.80;99.90
22081;DHT22;11207;59.512;18.050;2023-03-16T00:55:32;-2.90;99.90
22081;DHT22;11207;59.512;18.050;2023-03-16T00:57:57;-2.90;99.90
22081;DHT22;11207;59.512;18.050;2023-03-16T01:00:23;-2.90;99.90
22081;DHT22;11207;59.512;18.050;2023-03-16T01:02:52;-2.90;99.90
22081;DHT22;11207;59.512;18.050;2023-03-16T01:05:18;-2.90;99.90
22081;DHT22;11207;59.512;18.050;2023-03-16T01:07:44;-2.90;99.90
22081;DHT22;11207;59.512;18.050;2023-03-16T01:10:10;-2.90;99.90
22081;DHT22;11207;59.512;18.050;2023-03-16T01:12:36;-2.90;99.90
22081;DHT22;11207;59.512;18.050;2023-03-16T01:15:02;-3.00;99.90
22081;DHT22;11207;59.512;18.050;2023-03-16T01:17:28;-3.00;99.90
22081;DHT22;11207;59.512;18.050;2023-03-16T01:19:53;-3.00;99.90
22081;DHT22;11207;59.512;18.050;2023-03-16T01:22:19;-3.10;99.90
22081;DHT22;11207;59.512;18.050;2023-03-16T01:24:45;-3.10;99.90
22081;DHT22;11207;59.512;18.050;2023-03-16T01:27:12;-3.10;99.90
22081;DHT22;11207;59.512;18.050;2023-03-16T01:29:38;-3.20;99.90
22081;DHT22;11207;59.512;18.050;2023-03-16T01:32:05;-3.30;99.90
22081;DHT22;11207;59.512;18.050;2023-03-16T01:34:32;-3.30;99.90
22081;DHT22;11207;59.512;18.050;2023-03-16T01:36:58;-3.40;99.90
22081;DHT22;11207;59.512;18.050;2023-03-16T01:39:24;-3.40;99.90
22081;DHT22;11207;59.512;18.050;2023-03-16T01:41:50;-3.40;99.90
22081;DHT22;11207;59.512;18.050;2023-03-16T01:44:19;-3.40;99.90
22081;DHT22;11207;59.512;18.050;2023-03-16T01:46:47;-3.40;99.90
22081;DHT22;11207;59.512;18.050;2023-03-16T01:52:01;-3.60;99.90
22081;DHT22;11207;59.512;18.050;2023-03-16T01:54:43;-3.60;99.90
22081;DHT22;11207;59.512;18.050;2023-03-16T01:57:21;-3.70;99.90
22081;DHT22;11207;59.512;18.050;2023-03-16T02:02:44;-3.70;99.90
22081;DHT22;11207;59.512;18.050;2023-03-16T02:05:23;-3.60;99.90
22081;DHT22;11207;59.512;18.050;2023-03-16T02:07:52;-3.70;99.90
22081;DHT22;11207;59.512;18.050;2023-03-16T02:10:24;-3.60;99.90
22081;DHT22;11207;59.512;18.050;2023-03-16T02:12:51;-3.60;99.90
22081;DHT22;11207;59.512;18.050;2023-03-16T02:15:17;-3.70;99.90
22081;DHT22;11207;59.512;18.050;2023-03-16T02:17:44;-3.70;99.90
22081;DHT22;11207;59.512;18.050;2023-03-16T02:22:51;-3.70;99.90
22081;DHT22;11207;59.512;18.050;2023-03-16T02:25:27;-3.70;99.90
22081;DHT22;11207;59.512;18.050;2023-03-16T02:28:01;-3.70;99.90
22081;DHT22;11207;59.512;18.050;2023-03-16T02:30:27;-3.80;99.90
22081;DHT22;11207;59.512;18.050;2023-03-16T02:32:53;-3.90;99.90
22081;DHT22;11207;59.512;18.050;2023-03-16T02:35:19;-3.90;99.90
22081;DHT22;11207;59.512;18.050;2023-03-16T02:37:45;-3.90;99.90
22081;DHT22;11207;59.512;18.050;2023-03-16T02:42:55;-3.90;99.90
22081;DHT22;11207;59.512;18.050;2023-03-16T02:45:25;-3.90;99.90
22081;DHT22;11207;59.512;18.050;2023-03-16T02:47:54;-3.90;99.90
22081;DHT22;11207;59.512;18.050;2023-03-16T02:50:20;-4.00;99.90
22081;DHT22;11207;59.512;18.050;2023-03-16T02:52:45;-4.00;99.90
22081;DHT22;11207;59.512;18.050;2023-03-16T02:55:13;-4.00;99.90
22081;DHT22;11207;59.512;18.050;2023-03-16T02:57:38;-4.00;99.90
22081;DHT22;11207;59.512;18.050;2023-03-16T03:00:04;-3.90;99.90
22081;DHT22;11207;59.512;18.050;2023-03-16T03:02:38;-4.00;99.90
22081;DHT22;11207;59.512;18.050;2023-03-16T03:05:04;-4.00;99.90
22081;DHT22;11207;59.512;18.050;2023-03-16T03:07:29;-4.00;99.90
22081;DHT22;11207;59.512;18.050;2023-03-16T03:09:56;-4.00;99.90
22081;DHT22;11207;59.512;18.050;2023-03-16T03:12:21;-4.00;99.90
22081;DHT22;11207;59.512;18.050;2023-03-16T03:14:47;-4.00;99.90
22081;DHT22;11207;59.512;18.050;2023-03-16T03:17:13;-4.00;99.90
22081;DHT22;11207;59.512;18.050;2023-03-16T03:19:38;-4.00;99.90
22081;DHT22;11207;59.512;18.050;2023-03-16T03:22:04;-4.00;99.90
22081;DHT22;11207;59.512;18.050;2023-03-16T03:24:31;-4.00;99.90
22081;DHT22;11207;59.512;18.050;2023-03-16T03:26:58;-4.00;99.90
22081;DHT22;11207;59.512;18.050;2023-03-16T03:29:31;-4.00;99.90
22081;DHT22;11207;59.512;18.050;2023-03-16T03:32:02;-3.90;99.90
22081;DHT22;11207;59.512;18.050;2023-03-16T03:34:31;-3.90;99.90
22081;DHT22;11207;59.512;18.050;2023-03-16T03:36:57;-3.90;99.90
22081;DHT22;11207;59.512;18.050;2023-03-16T03:39:23;-3.90;99.90
22081;DHT22;11207;59.512;18.050;2023-03-16T03:41:49;-3.90;99.90
22081;DHT22;11207;59.512;18.050;2023-03-16T03:44:19;-4.00;99.90
22081;DHT22;11207;59.512;18.050;2023-03-16T03:46:46;-4.00;99.90
22081;DHT22;11207;59.512;18.050;2023-03-16T03:49:11;-4.10;99.90
22081;DHT22;11207;59.512;18.050;2023-03-16T03:51:37;-4.10;99.90
22081;DHT22;11207;59.512;18.050;2023-03-16T03:54:03;-4.20;99.90
22081;DHT22;11207;59.512;18.050;2023-03-16T03:56:28;-4.20;99.90
22081;DHT22;11207;59.512;18.050;2023-03-16T03:58:54;-4.20;99.90
22081;DHT22;11207;59.512;18.050;2023-03-16T04:01:19;-4.30;99.90
22081;DHT22;11207;59.512;18.050;2023-03-16T04:03:45;-4.30;99.90
22081;DHT22;11207;59.512;18.050;2023-03-16T04:06:11;-4.30;99.90
22081;DHT22;11207;59.512;18.050;2023-03-16T04:08:36;-4.30;99.90
22081;DHT22;11207;59.512;18.050;2023-03-16T04:11:02;-4.20;99.90
22081;DHT22;11207;59.512;18.050;2023-03-16T04:13:27;-4.20;99.90
22081;DHT22;11207;59.512;18.050;2023-03-16T04:15:57;-4.20;99.90
22081;DHT22;11207;59.512;18.050;2023-03-16T04:18:23;-4.30;99.90
22081;DHT22;11207;59.512;18.050;2023-03-16T04:20:49;-4.30;99.90
22081;DHT22;11207;59.512;18.050;2023-03-16T04:23:14;-4.40;99.90
22081;DHT22;11207;59.512;18.050;2023-03-16T04:25:41;-4.40;99.90
22081;DHT22;11207;59.512;18.050;2023-03-16T04:28:07;-4.40;99.90
22081;DHT22;11207;59.512;18.050;2023-03-16T04:30:32;-4.50;99.90
22081;DHT22;11207;59.512;18.050;2023-03-16T04:32:59;-4.50;99.90
22081;DHT22;11207;59.512;18.050;2023-03-16T04:35:25;-4.50;99.90
22081;DHT22;11207;59.512;18.050;2023-03-16T04:37:50;-4.50;99.90
22081;DHT22;11207;59.512;18.050;2023-03-16T04:40:16;-4.50;99.90
22081;DHT22;11207;59.512;18.050;2023-03-16T04:42:44;-4.50;99.90
22081;DHT22;11207;59.512;18.050;2023-03-16T04:45:10;-4.50;99.90
22081;DHT22;11207;59.512;18.050;2023-03-16T04:47:36;-4.50;99.90
22081;DHT22;11207;59.512;18.050;2023-03-16T04:50:03;-4.50;99.90
22081;DHT22;11207;59.512;18.050;2023-03-16T04:52:30;-4.50;99.90
22081;DHT22;11207;59.512;18.050;2023-03-16T04:54:56;-4.50;99.90
22081;DHT22;11207;59.512;18.050;2023-03-16T04:57:22;-4.50;99.90
22081;DHT22;11207;59.512;18.050;2023-03-16T04:59:47;-4.50;99.90
22081;DHT22;11207;59.512;18.050;2023-03-16T05:02:13;-4.50;99.90
22081;DHT22;11207;59.512;18.050;2023-03-16T05:04:39;-4.50;99.90
22081;DHT22;11207;59.512;18.050;2023-03-16T05:07:05;-4.50;99.90
22081;DHT22;11207;59.512;18.050;2023-03-16T05:09:30;-4.50;99.90
22081;DHT22;11207;59.512;18.050;2023-03-16T05:11:57;-4.50;99.90
22081;DHT22;11207;59.512;18.050;2023-03-16T05:14:23;-4.60;99.90
22081;DHT22;11207;59.512;18.050;2023-03-16T05:16:48;-4.60;99.90
22081;DHT22;11207;59.512;18.050;2023-03-16T05:19:14;-4.60;99.90
22081;DHT22;11207;59.512;18.050;2023-03-16T05:21:39;-4.60;99.90
22081;DHT22;11207;59.512;18.050;2023-03-16T05:24:06;-4.60;99.90
22081;DHT22;11207;59.512;18.050;2023-03-16T05:26:32;-4.60;99.90
22081;DHT22;11207;59.512;18.050;2023-03-16T05:28:58;-4.60;99.90
22081;DHT22;11207;59.512;18.050;2023-03-16T05:31:26;-4.60;99.90
22081;DHT22;11207;59.512;18.050;2023-03-16T05:33:52;-4.60;99.90
22081;DHT22;11207;59.512;18.050;2023-03-16T05:36:19;-4.50;99.90
22081;DHT22;11207;59.512;18.050;2023-03-16T05:38:44;-4.50;99.90
22081;DHT22;11207;59.512;18.050;2023-03-16T05:41:10;-4.60;99.90
22081;DHT22;11207;59.512;18.050;2023-03-16T05:43:36;-4.60;99.90
22081;DHT22;11207;59.512;18.050;2023-03-16T05:46:02;-4.50;99.90
22081;DHT22;11207;59.512;18.050;2023-03-16T05:48:28;-4.50;99.90
22081;DHT22;11207;59.512;18.050;2023-03-16T05:50:54;-4.50;99.90
22081;DHT22;11207;59.512;18.050;2023-03-16T05:53:20;-4.60;99.90
22081;DHT22;11207;59.512;18.050;2023-03-16T05:55:54;-4.60;99.90
22081;DHT22;11207;59.512;18.050;2023-03-16T05:58:19;-4.60;99.90
22081;DHT22;11207;59.512;18.050;2023-03-16T06:00:45;-4.50;99.90
22081;DHT22;11207;59.512;18.050;2023-03-16T06:03:11;-4.50;99.90
22081;DHT22;11207;59.512;18.050;2023-03-16T06:05:37;-4.40;99.90
22081;DHT22;11207;59.512;18.050;2023-03-16T06:08:03;-4.40;99.90
22081;DHT22;11207;59.512;18.050;2023-03-16T06:10:32;-4.40;99.90
22081;DHT22;11207;59.512;18.050;2023-03-16T06:12:57;-4.40;99.90
22081;DHT22;11207;59.512;18.050;2023-03-16T06:15:23;-4.30;99.90
22081;DHT22;11207;59.512;18.050;2023-03-16T06:17:50;-4.30;99.90
22081;DHT22;11207;59.512;18.050;2023-03-16T06:20:16;-4.30;99.90
22081;DHT22;11207;59.512;18.050;2023-03-16T06:22:43;-4.20;99.90
22081;DHT22;11207;59.512;18.050;2023-03-16T06:25:10;-4.20;99.90
22081;DHT22;11207;59.512;18.050;2023-03-16T06:27:36;-4.20;99.90
22081;DHT22;11207;59.512;18.050;2023-03-16T06:30:03;-4.00;99.90
22081;DHT22;11207;59.512;18.050;2023-03-16T06:32:30;-4.10;99.90
22081;DHT22;11207;59.512;18.050;2023-03-16T06:34:56;-4.10;99.90
22081;DHT22;11207;59.512;18.050;2023-03-16T06:37:24;-3.90;99.90
22081;DHT22;11207;59.512;18.050;2023-03-16T06:39:49;-4.00;99.90
22081;DHT22;11207;59.512;18.050;2023-03-16T06:42:15;-3.90;99.90
22081;DHT22;11207;59.512;18.050;2023-03-16T06:44:41;-3.90;99.90
22081;DHT22;11207;59.512;18.050;2023-03-16T06:47:07;-3.80;99.90
22081;DHT22;11207;59.512;18.050;2023-03-16T06:49:32;-3.70;99.90
22081;DHT22;11207;59.512;18.050;2023-03-16T06:51:58;-3.70;99.90
22081;DHT22;11207;59.512;18.050;2023-03-16T06:54:25;-3.60;99.90
22081;DHT22;11207;59.512;18.050;2023-03-16T06:56:51;-3.50;99.90
22081;DHT22;11207;59.512;18.050;2023-03-16T06:59:16;-3.40;99.90
22081;DHT22;11207;59.512;18.050;2023-03-16T07:01:42;-3.40;99.90
22081;DHT22;11207;59.512;18.050;2023-03-16T07:04:09;-3.30;99.90
22081;DHT22;11207;59.512;18.050;2023-03-16T07:06:37;-3.20;99.90
22081;DHT22;11207;59.512;18.050;2023-03-16T07:09:02;-3.00;99.90
22081;DHT22;11207;59.512;18.050;2023-03-16T07:11:30;-2.90;99.90
22081;DHT22;11207;59.512;18.050;2023-03-16T07:13:56;-3.00;99.90
22081;DHT22;11207;59.512;18.050;2023-03-16T07:16:23;-2.70;99.90
22081;DHT22;11207;59.512;18.050;2023-03-16T07:18:48;-2.60;99.90
22081;DHT22;11207;59.512;18.050;2023-03-16T07:21:16;-2.60;99.90
22081;DHT22;11207;59.512;18.050;2023-03-16T07:23:42;-2.40;99.90
22081;DHT22;11207;59.512;18.050;2023-03-16T07:26:09;-2.40;99.90
22081;DHT22;11207;59.512;18.050;2023-03-16T07:28:37;-2.30;99.90
22081;DHT22;11207;59.512;18.050;2023-03-16T07:31:03;-2.20;99.90
22081;DHT22;11207;59.512;18.050;2023-03-16T07:33:30;-2.10;99.90
22081;DHT22;11207;59.512;18.050;2023-03-16T07:35:57;-2.00;99.90
22081;DHT22;11207;59.512;18.050;2023-03-16T07:38:23;-2.00;99.90
22081;DHT22;11207;59.512;18.050;2023-03-16T07:40:49;-1.90;99.90
22081;DHT22;11207;59.512;18.050;2023-03-16T07:43:16;-1.80;99.90
22081;DHT22;11207;59.512;18.050;2023-03-16T07:45:47;-1.70;99.90
22081;DHT22;11207;59.512;18.050;2023-03-16T07:48:12;-1.60;99.90
22081;DHT22;11207;59.512;18.050;2023-03-16T07:50:38;-1.50;99.90
22081;DHT22;11207;59.512;18.050;2023-03-16T07:53:04;-1.50;99.90
22081;DHT22;11207;59.512;18.050;2023-03-16T07:55:29;-1.40;99.90
22081;DHT22;11207;59.512;18.050;2023-03-16T07:57:59;-1.40;99.90
22081;DHT22;11207;59.512;18.050;2023-03-16T08:00:32;-1.30;99.90
22081;DHT22;11207;59.512;18.050;2023-03-16T08:02:57;-1.20;99.90
22081;DHT22;11207;59.512;18.050;2023-03-16T08:05:23;-1.20;99.90
22081;DHT22;11207;59.512;18.050;2023-03-16T08:07:49;-1.10;99.90
22081;DHT22;11207;59.512;18.050;2023-03-16T08:10:16;-1.00;99.90
22081;DHT22;11207;59.512;18.050;2023-03-16T08:12:42;-1.10;99.90
22081;DHT22;11207;59.512;18.050;2023-03-16T08:15:08;-1.00;99.90
22081;DHT22;11207;59.512;18.050;2023-03-16T08:17:34;-0.90;99.90
22081;DHT22;11207;59.512;18.050;2023-03-16T08:20:02;-0.90;99.90
22081;DHT22;11207;59.512;18.050;2023-03-16T08:22:32;-0.90;99.90
22081;DHT22;11207;59.512;18.050;2023-03-16T08:24:57;-0.80;99.90
22081;DHT22;11207;59.512;18.050;2023-03-16T08:27:23;-0.80;99.90
22081;DHT22;11207;59.512;18.050;2023-03-16T08:29:53;-0.80;99.90
22081;DHT22;11207;59.512;18.050;2023-03-16T08:32:19;-0.70;99.90
22081;DHT22;11207;59.512;18.050;2023-03-16T08:34:45;-0.60;99.90
22081;DHT22;11207;59.512;18.050;2023-03-16T08:37:12;-0.50;99.90
22081;DHT22;11207;59.512;18.050;2023-03-16T08:39:42;-0.50;99.90
22081;DHT22;11207;59.512;18.050;2023-03-16T08:42:09;-0.40;99.90
22081;DHT22;11207;59.512;18.050;2023-03-16T08:44:35;-0.30;99.90
22081;DHT22;11207;59.512;18.050;2023-03-16T08:47:02;-0.20;99.90
22081;DHT22;11207;59.512;18.050;2023-03-16T08:49:28;-0.10;99.90
22081;DHT22;11207;59.512;18.050;2023-03-16T08:51:54;0.00;99.90
22081;DHT22;11207;59.512;18.050;2023-03-16T08:54:19;0.20;99.90
22081;DHT22;11207;59.512;18.050;2023-03-16T08:56:45;0.20;99.90
22081;DHT22;11207;59.512;18.050;2023-03-16T08:59:11;0.20;99.90
22081;DHT22;11207;59.512;18.050;2023-03-16T09:01:36;0.30;99.90
22081;DHT22;11207;59.512;18.050;2023-03-16T09:04:02;0.40;99.90
22081;DHT22;11207;59.512;18.050;2023-03-16T09:06:28;0.40;99.90
22081;DHT22;11207;59.512;18.050;2023-03-16T09:08:53;0.30;99.90
22081;DHT22;11207;59.512;18.050;2023-03-16T09:11:20;0.40;99.90
22081;DHT22;11207;59.512;18.050;2023-03-16T09:13:47;0.40;99.90
22081;DHT22;11207;59.512;18.050;2023-03-16T09:16:14;0.50;99.90
22081;DHT22;11207;59.512;18.050;2023-03-16T09:18:40;0.80;99.90
22081;DHT22;11207;59.512;18.050;2023-03-16T09:21:08;0.80;99.90
22081;DHT22;11207;59.512;18.050;2023-03-16T09:23:35;0.90;99.90
22081;DHT22;11207;59.512;18.050;2023-03-16T09:26:03;1.00;99.90
22081;DHT22;11207;59.512;18.050;2023-03-16T09:28:30;1.00;99.90
22081;DHT22;11207;59.512;18.050;2023-03-16T09:30:57;1.10;99.90
22081;DHT22;11207;59.512;18.050;2023-03-16T09:33:24;1.20;99.90
22081;DHT22;11207;59.512;18.050;2023-03-16T09:35:50;1.20;99.90
22081;DHT22;11207;59.512;18.050;2023-03-16T09:38:18;1.20;99.90
22081;DHT22;11207;59.512;18.050;2023-03-16T09:40:44;1.30;99.90
22081;DHT22;11207;59.512;18.050;2023-03-16T09:46:09;1.40;99.90
22081;DHT22;11207;59.512;18.050;2023-03-16T09:48:36;1.50;99.90
22081;DHT22;11207;59.512;18.050;2023-03-16T09:51:05;1.50;99.90
22081;DHT22;11207;59.512;18.050;2023-03-16T09:53:38;1.60;99.90
22081;DHT22;11207;59.512;18.050;2023-03-16T09:56:10;1.70;99.90
22081;DHT22;11207;59.512;18.050;2023-03-16T09:58:38;1.80;99.90
22081;DHT22;11207;59.512;18.050;2023-03-16T10:01:24;1.80;99.90
22081;DHT22;11207;59.512;18.050;2023-03-16T10:04:49;1.80;99.90
22081;DHT22;11207;59.512;18.050;2023-03-16T10:12:15;2.10;99.90
22081;DHT22;11207;59.512;18.050;2023-03-16T10:14:53;2.20;99.90
22081;DHT22;11207;59.512;18.050;2023-03-16T10:17:35;2.20;99.90
22081;DHT22;11207;59.512;18.050;2023-03-16T10:20:12;2.40;99.90
22081;DHT22;11207;59.512;18.050;2023-03-16T10:22:43;2.40;99.90
22081;DHT22;11207;59.512;18.050;2023-03-16T10:25:11;2.40;99.90
22081;DHT22;11207;59.512;18.050;2023-03-16T10:27:42;2.40;99.90
22081;DHT22;11207;59.512;18.050;2023-03-16T10:30:25;2.50;99.90
22081;DHT22;11207;59.512;18.050;2023-03-16T10:32:53;2.60;99.90
22081;DHT22;11207;59.512;18.050;2023-03-16T10:35:44;2.60;99.90
22081;DHT22;11207;59.512;18.050;2023-03-16T10:38:39;2.70;99.90
22081;DHT22;11207;59.512;18.050;2023-03-16T10:43:57;3.00;99.90
22081;DHT22;11207;59.512;18.050;2023-03-16T10:46:25;3.00;99.90
22081;DHT22;11207;59.512;18.050;2023-03-16T10:48:59;3.10;99.90
22081;DHT22;11207;59.512;18.050;2023-03-16T10:51:30;3.20;99.90
22081;DHT22;11207;59.512;18.050;2023-03-16T10:54:07;3.20;99.90
22081;DHT22;11207;59.512;18.050;2023-03-16T10:56:35;3.30;99.90
22081;DHT22;11207;59.512;18.050;2023-03-16T11:01:44;3.40;99.90
22081;DHT22;11207;59.512;18.050;2023-03-16T11:04:14;3.50;99.90
22081;DHT22;11207;59.512;18.050;2023-03-16T11:06:51;3.60;99.90
22081;DHT22;11207;59.512;18.050;2023-03-16T11:09:31;3.70;99.90
22081;DHT22;11207;59.512;18.050;2023-03-16T11:11:58;3.70;99.90
22081;DHT22;11207;59.512;18.050;2023-03-16T11:14:26;3.90;99.90
22081;DHT22;11207;59.512;18.050;2023-03-16T11:16:59;4.00;99.90
22081;DHT22;11207;59.512;18.050;2023-03-16T11:19:33;4.00;99.90
22081;DHT22;11207;59.512;18.050;2023-03-16T11:32:44;4.20;99.90
22081;DHT22;11207;59.512;18.050;2023-03-16T11:35:14;4.30;99.90
22081;DHT22;11207;59.512;18.050;2023-03-16T11:40:40;4.30;99.90
22081;DHT22;11207;59.512;18.050;2023-03-16T11:48:34;4.40;99.90
22081;DHT22;11207;59.512;18.050;2023-03-16T11:51:07;4.50;99.90
22081;DHT22;11207;59.512;18.050;2023-03-16T11:53:58;4.60;99.90
22081;DHT22;11207;59.512;18.050;2023-03-16T11:56:32;4.70;99.90
22081;DHT22;11207;59.512;18.050;2023-03-16T11:59:27;4.60;99.90
22081;DHT22;11207;59.512;18.050;2023-03-16T12:07:24;4.90;99.90
22081;DHT22;11207;59.512;18.050;2023-03-16T12:10:04;4.90;99.90
22081;DHT22;11207;59.512;18.050;2023-03-16T12:15:37;4.80;99.90
22081;DHT22;11207;59.512;18.050;2023-03-16T12:21:26;4.90;99.90
22081;DHT22;11207;59.512;18.050;2023-03-16T12:23:55;4.90;99.90
22081;DHT22;11207;59.512;18.050;2023-03-16T12:26:24;5.00;99.90
22081;DHT22;11207;59.512;18.050;2023-03-16T12:28:53;5.00;99.90
22081;DHT22;11207;59.512;18.050;2023-03-16T12:34:07;4.90;99.90
22081;DHT22;11207;59.512;18.050;2023-03-16T12:36:51;5.00;99.90
22081;DHT22;11207;59.512;18.050;2023-03-16T12:39:47;5.10;99.90
22081;DHT22;11207;59.512;18.050;2023-03-16T12:42:24;5.10;99.90
22081;DHT22;11207;59.512;18.050;2023-03-16T12:45:03;5.00;99.90
22081;DHT22;11207;59.512;18.050;2023-03-16T12:50:52;5.20;99.90
22081;DHT22;11207;59.512;18.050;2023-03-16T12:53:52;5.10;99.90
22081;DHT22;11207;59.512;18.050;2023-03-16T12:56:26;5.10;99.90
22081;DHT22;11207;59.512;18.050;2023-03-16T12:58:57;5.40;99.90
22081;DHT22;11207;59.512;18.050;2023-03-16T13:01:29;5.30;99.90
22081;DHT22;11207;59.512;18.050;2023-03-16T13:04:12;5.30;99.90
22081;DHT22;11207;59.512;18.050;2023-03-16T13:06:43;5.30;99.90
22081;DHT22;11207;59.512;18.050;2023-03-16T13:09:11;5.20;99.90
22081;DHT22;11207;59.512;18.050;2023-03-16T13:11:56;5.20;99.90
22081;DHT22;11207;59.512;18.050;2023-03-16T13:17:24;5.20;99.90
22081;DHT22;11207;59.512;18.050;2023-03-16T13:27:39;5.00;99.90
22081;DHT22;11207;59.512;18.050;2023-03-16T13:30:20;5.10;99.90
22081;DHT22;11207;59.512;18.050;2023-03-16T13:32:47;5.10;99.90
22081;DHT22;11207;59.512;18.050;2023-03-16T13:35:14;5.00;99.90
22081;DHT22;11207;59.512;18.050;2023-03-16T13:37:42;5.00;99.90
22081;DHT22;11207;59.512;18.050;2023-03-16T13:40:17;4.90;99.90
22081;DHT22;11207;59.512;18.050;2023-03-16T13:42:46;4.80;99.90
22081;DHT22;11207;59.512;18.050;2023-03-16T13:45:20;4.80;99.90
22081;DHT22;11207;59.512;18.050;2023-03-16T13:47:47;4.80;99.90
22081;DHT22;11207;59.512;18.050;2023-03-16T13:50:13;4.80;99.90
22081;DHT22;11207;59.512;18.050;2023-03-16T13:52:40;4.80;99.90
22081;DHT22;11207;59.512;18.050;2023-03-16T13:55:16;4.70;99.90
22081;DHT22;11207;59.512;18.050;2023-03-16T13:57:43;4.60;97.20
22081;DHT22;11207;59.512;18.050;2023-03-16T14:00:19;4.70;99.90
22081;DHT22;11207;59.512;18.050;2023-03-16T14:02:54;4.80;99.90
22081;DHT22;11207;59.512;18.050;2023-03-16T14:05:32;4.80;99.90
22081;DHT22;11207;59.512;18.050;2023-03-16T14:08:00;4.80;99.90
22081;DHT22;11207;59.512;18.050;2023-03-16T14:10:34;4.70;99.90
22081;DHT22;11207;59.512;18.050;2023-03-16T14:13:09;4.80;99.90
22081;DHT22;11207;59.512;18.050;2023-03-16T14:15:46;4.70;99.90
22081;DHT22;11207;59.512;18.050;2023-03-16T14:18:17;4.70;99.90
22081;DHT22;11207;59.512;18.050;2023-03-16T14:20:50;4.60;99.90
22081;DHT22;11207;59.512;18.050;2023-03-16T14:23:32;4.80;99.90
22081;DHT22;11207;59.512;18.050;2023-03-16T14:25:58;4.60;99.90
22081;DHT22;11207;59.512;18.050;2023-03-16T14:28:30;4.70;99.90
22081;DHT22;11207;59.512;18.050;2023-03-16T14:31:05;4.60;99.90
22081;DHT22;11207;59.512;18.050;2023-03-16T14:33:34;4.70;99.90
22081;DHT22;11207;59.512;18.050;2023-03-16T14:36:15;4.60;99.90
22081;DHT22;11207;59.512;18.050;2023-03-16T14:38:43;4.60;99.90
22081;DHT22;11207;59.512;18.050;2023-03-16T14:43:46;4.60;99.90
22081;DHT22;11207;59.512;18.050;2023-03-16T14:46:26;4.60;99.90
22081;DHT22;11207;59.512;18.050;2023-03-16T14:51:37;4.50;99.80
22081;DHT22;11207;59.512;18.050;2023-03-16T14:54:12;4.40;99.90
22081;DHT22;11207;59.512;18.050;2023-03-16T14:56:38;4.50;97.40
22081;DHT22;11207;59.512;18.050;2023-03-16T14:59:04;4.40;99.90
22081;DHT22;11207;59.512;18.050;2023-03-16T15:01:32;4.40;99.90
22081;DHT22;11207;59.512;18.050;2023-03-16T15:03:58;4.40;99.90
22081;DHT22;11207;59.512;18.050;2023-03-16T15:06:24;4.40;99.90
22081;DHT22;11207;59.512;18.050;2023-03-16T15:08:51;4.30;99.90
22081;DHT22;11207;59.512;18.050;2023-03-16T15:11:17;4.30;99.90
22081;DHT22;11207;59.512;18.050;2023-03-16T15:13:49;4.30;99.90
22081;DHT22;11207;59.512;18.050;2023-03-16T15:16:15;4.20;99.90
22081;DHT22;11207;59.512;18.050;2023-03-16T15:18:41;4.20;98.60
22081;DHT22;11207;59.512;18.050;2023-03-16T15:21:11;4.10;99.90
22081;DHT22;11207;59.512;18.050;2023-03-16T15:23:38;4.10;99.90
22081;DHT22;11207;59.512;18.050;2023-03-16T15:26:04;4.10;99.90
22081;DHT22;11207;59.512;18.050;2023-03-16T15:28:32;4.10;99.90
22081;DHT22;11207;59.512;18.050;2023-03-16T15:31:00;4.00;99.90
22081;DHT22;11207;59.512;18.050;2023-03-16T15:33:26;4.00;99.90
22081;DHT22;11207;59.512;18.050;2023-03-16T15:35:54;3.90;99.90
22081;DHT22;11207;59.512;18.050;2023-03-16T15:38:21;3.90;99.90
22081;DHT22;11207;59.512;18.050;2023-03-16T15:40:47;3.80;99.90
22081;DHT22;11207;59.512;18.050;2023-03-16T15:43:17;3.80;99.90
22081;DHT22;11207;59.512;18.050;2023-03-16T15:45:43;3.70;99.90
22081;DHT22;11207;59.512;18.050;2023-03-16T15:48:09;3.70;99.90
22081;DHT22;11207;59.512;18.050;2023-03-16T15:50:37;3.70;99.90
22081;DHT22;11207;59.512;18.050;2023-03-16T15:53:07;3.60;99.90
22081;DHT22;11207;59.512;18.050;2023-03-16T15:55:40;3.50;99.90
22081;DHT22;11207;59.512;18.050;2023-03-16T15:58:16;3.50;99.90
22081;DHT22;11207;59.512;18.050;2023-03-16T16:00:43;3.30;99.90
22081;DHT22;11207;59.512;18.050;2023-03-16T16:03:10;3.20;99.90
22081;DHT22;11207;59.512;18.050;2023-03-16T16:05:37;3.00;99.90
22081;DHT22;11207;59.512;18.050;2023-03-16T16:08:03;2.80;99.90
22081;DHT22;11207;59.512;18.050;2023-03-16T16:10:30;2.70;99.90
22081;DHT22;11207;59.512;18.050;2023-03-16T16:13:13;2.50;99.90
22081;DHT22;11207;59.512;18.050;2023-03-16T16:15:40;2.40;99.90
22081;DHT22;11207;59.512;18.050;2023-03-16T16:18:32;2.40;99.90
22081;DHT22;11207;59.512;18.050;2023-03-16T16:21:02;2.30;99.90
22081;DHT22;11207;59.512;18.050;2023-03-16T16:23:28;2.20;99.90
22081;DHT22;11207;59.512;18.050;2023-03-16T16:25:58;2.10;99.90
22081;DHT22;11207;59.512;18.050;2023-03-16T16:28:29;2.00;99.90
22081;DHT22;11207;59.512;18.050;2023-03-16T16:30:56;1.90;99.90
22081;DHT22;11207;59.512;18.050;2023-03-16T16:33:33;1.80;99.90
22081;DHT22;11207;59.512;18.050;2023-03-16T16:36:12;1.70;99.90
22081;DHT22;11207;59.512;18.050;2023-03-16T16:38:39;1.60;99.90
22081;DHT22;11207;59.512;18.050;2023-03-16T16:41:08;1.60;99.90
22081;DHT22;11207;59.512;18.050;2023-03-16T16:43:45;1.60;99.90
22081;DHT22;11207;59.512;18.050;2023-03-16T16:46:22;1.50;99.90
22081;DHT22;11207;59.512;18.050;2023-03-16T16:48:51;1.40;99.90
22081;DHT22;11207;59.512;18.050;2023-03-16T16:51:23;1.20;99.90